createdAt,value
2018-08-06T00:02:09.579Z,27.30
2018-08-06T00:04:38.608Z,27.20
2018-08-06T00:07:11.149Z,27.20
2018-08-06T00:09:41.014Z,27.20
2018-08-06T00:12:13.234Z,27.10
2018-08-06T00:14:43.297Z,27.10
2018-08-06T00:17:16.752Z,27.00
2018-08-06T00:19:46.673Z,27.00
2018-08-06T00:22:22.933Z,27.00
2018-08-06T00:27:56.549Z,26.80
2018-08-06T00:30:29.326Z,26.80
2018-08-06T00:33:11.739Z,26.70
2018-08-06T00:35:50.075Z,26.60
2018-08-06T00:38:34.096Z,26.50
2018-08-06T00:41:12.108Z,26.40
2018-08-06T00:43:41.746Z,26.40
2018-08-06T00:46:12.888Z,26.40
2018-08-06T00:48:43.021Z,26.40
2018-08-06T00:51:13.076Z,26.40
2018-08-06T00:53:45.330Z,26.50
2018-08-06T00:56:21.247Z,26.40
2018-08-06T00:58:54.512Z,26.40
2018-08-06T01:01:29.605Z,26.40
2018-08-06T01:04:10.858Z,26.40
2018-08-06T01:06:45.483Z,26.30
2018-08-06T01:09:15.559Z,26.40
2018-08-06T01:11:47.757Z,26.20
2018-08-06T01:14:21.443Z,26.10
2018-08-06T01:16:53.535Z,26.00
2018-08-06T01:19:25.493Z,26.00
2018-08-06T01:21:56.776Z,25.90
2018-08-06T01:24:28.969Z,26.00
2018-08-06T01:27:03.940Z,26.10
2018-08-06T01:29:34.111Z,26.10
2018-08-06T01:32:05.232Z,26.10
2018-08-06T01:34:36.984Z,26.10
2018-08-06T01:37:06.905Z,26.20
2018-08-06T01:39:38.153Z,26.20
2018-08-06T01:42:08.176Z,26.10
2018-08-06T01:44:46.163Z,26.00
2018-08-06T01:47:26.420Z,25.90
2018-08-06T01:50:04.117Z,25.80
2018-08-06T01:52:39.482Z,25.80
2018-08-06T01:55:22.282Z,25.80
2018-08-06T01:57:53.726Z,25.70
2018-08-06T02:00:26.959Z,25.70
2018-08-06T02:03:02.497Z,25.60
2018-08-06T02:05:34.833Z,25.60
2018-08-06T02:08:10.457Z,25.60
2018-08-06T02:10:42.440Z,25.60
2018-08-06T02:13:19.114Z,25.60
2018-08-06T02:15:50.056Z,25.70
2018-08-06T02:18:21.930Z,25.70
2018-08-06T02:20:53.995Z,25.70
2018-08-06T02:23:23.623Z,25.60
2018-08-06T02:25:53.730Z,25.60
2018-08-06T02:28:24.086Z,25.60
2018-08-06T02:30:54.564Z,25.60
2018-08-06T02:33:30.006Z,25.50
2018-08-06T02:36:04.859Z,25.40
2018-08-06T02:38:34.665Z,25.30
2018-08-06T02:41:05.434Z,25.20
2018-08-06T02:43:36.673Z,25.30
2018-08-06T02:46:06.075Z,25.30
2018-08-06T02:48:35.785Z,25.20
2018-08-06T02:51:05.050Z,25.20
2018-08-06T02:56:03.384Z,25.30
2018-08-06T02:58:33.763Z,25.30
2018-08-06T03:01:03.309Z,25.20
2018-08-06T03:03:36.092Z,25.20
2018-08-06T03:06:05.242Z,25.20
2018-08-06T03:08:34.339Z,25.10
2018-08-06T03:11:04.816Z,25.20
2018-08-06T03:13:33.746Z,25.20
2018-08-06T03:16:04.840Z,25.20
2018-08-06T03:18:33.934Z,25.10
2018-08-06T03:21:05.175Z,25.10
2018-08-06T03:23:34.881Z,25.00
2018-08-06T03:26:05.060Z,25.10
2018-08-06T03:28:34.189Z,25.00
2018-08-06T03:31:03.862Z,25.10
2018-08-06T03:33:33.674Z,25.10
2018-08-06T03:36:03.423Z,25.20
2018-08-06T03:38:33.779Z,25.20
2018-08-06T03:41:02.385Z,25.10
2018-08-06T03:43:33.336Z,25.00
2018-08-06T03:46:02.628Z,25.00
2018-08-06T03:48:31.525Z,24.90
2018-08-06T03:51:00.237Z,24.90
2018-08-06T03:53:29.507Z,24.90
2018-08-06T03:58:28.484Z,24.90
2018-08-06T04:00:57.576Z,25.00
2018-08-06T04:03:26.607Z,25.00
2018-08-06T04:05:55.855Z,25.00
2018-08-06T04:08:25.479Z,25.00
2018-08-06T04:10:54.577Z,24.90
2018-08-06T04:13:27.520Z,25.00
2018-08-06T04:16:00.996Z,24.90
2018-08-06T04:18:36.326Z,24.90
2018-08-06T04:21:11.735Z,24.90
2018-08-06T04:24:04.481Z,24.90
2018-08-06T04:26:49.208Z,24.90
2018-08-06T04:29:31.809Z,24.80
2018-08-06T04:32:15.465Z,25.00
2018-08-06T04:37:46.451Z,24.80
2018-08-06T04:40:22.987Z,24.80
2018-08-06T04:43:02.200Z,24.70
2018-08-06T04:45:50.953Z,24.60
2018-08-06T04:48:36.509Z,24.60
2018-08-06T04:51:10.667Z,24.60
2018-08-06T04:53:50.446Z,24.70
2018-08-06T04:56:29.892Z,24.80
2018-08-06T04:59:06.814Z,24.90
2018-08-06T05:04:43.251Z,24.80
2018-08-06T05:07:23.870Z,24.90
2018-08-06T05:10:03.359Z,25.00
2018-08-06T05:12:43.925Z,25.20
2018-08-06T05:18:08.446Z,25.50
2018-08-06T05:20:46.960Z,25.60
2018-08-06T05:23:22.794Z,25.70
2018-08-06T05:25:55.275Z,25.70
2018-08-06T05:28:29.027Z,25.80
2018-08-06T05:31:03.705Z,25.70
2018-08-06T05:33:45.389Z,25.80
2018-08-06T05:36:25.599Z,25.80
2018-08-06T05:39:00.280Z,26.40
2018-08-06T05:41:35.711Z,27.20
2018-08-06T05:49:25.226Z,27.80
2018-08-06T05:55:09.511Z,28.50
2018-08-06T05:58:02.653Z,28.50
2018-08-06T06:01:23.662Z,28.40
2018-08-06T06:04:17.696Z,28.80
2018-08-06T06:07:08.363Z,29.60
2018-08-06T06:12:56.103Z,30.10
2018-08-06T06:18:53.390Z,31.00
2018-08-06T06:27:32.745Z,31.80
2018-08-06T06:33:00.263Z,31.40
2018-08-06T06:35:42.547Z,31.00
2018-08-06T06:41:18.883Z,31.50
2018-08-06T06:44:22.022Z,32.00
2018-08-06T06:52:52.128Z,33.70
2018-08-06T06:55:49.447Z,33.90
2018-08-06T06:58:44.040Z,34.30
2018-08-06T07:01:16.974Z,34.80
2018-08-06T07:06:36.857Z,34.80
2018-08-06T07:11:58.306Z,33.70
2018-08-06T07:14:35.572Z,33.80
2018-08-06T07:17:21.200Z,34.40
2018-08-06T07:20:17.813Z,34.90
2018-08-06T07:26:08.452Z,35.50
2018-08-06T07:28:56.072Z,35.80
2018-08-06T07:31:46.063Z,35.90
2018-08-06T07:34:39.039Z,36.00
2018-08-06T07:37:46.475Z,36.10
2018-08-06T07:40:33.354Z,36.10
2018-08-06T07:43:10.123Z,36.80
2018-08-06T07:45:45.576Z,36.80
2018-08-06T07:48:27.545Z,37.00
2018-08-06T07:53:46.544Z,37.10
2018-08-06T08:01:28.477Z,37.50
2018-08-06T08:04:52.531Z,37.60
2018-08-06T08:07:35.497Z,37.70
2018-08-06T08:13:07.480Z,37.90
2018-08-06T08:15:42.381Z,37.50
2018-08-06T08:18:11.848Z,36.60
2018-08-06T08:20:42.005Z,37.40
2018-08-06T08:25:42.516Z,38.10
2018-08-06T08:28:11.444Z,38.40
2018-08-06T08:33:21.713Z,39.00
2018-08-06T08:35:50.471Z,39.30
2018-08-06T08:40:50.688Z,37.60
2018-08-06T08:43:21.422Z,37.50
2018-08-06T08:45:53.980Z,38.10
2018-08-06T08:48:31.719Z,38.50
2018-08-06T08:51:14.791Z,39.50
2018-08-06T08:56:46.879Z,39.70
2018-08-06T08:59:29.364Z,39.80
2018-08-06T09:02:18.178Z,39.90
2018-08-06T09:04:51.732Z,40.20
2018-08-06T09:07:22.095Z,41.00
2018-08-06T09:09:52.272Z,41.40
2018-08-06T09:12:22.605Z,41.70
2018-08-06T09:14:56.282Z,41.70
2018-08-06T09:17:29.500Z,41.70
2018-08-06T09:20:06.416Z,41.30
2018-08-06T09:22:41.720Z,40.90
2018-08-06T09:25:15.209Z,41.00
2018-08-06T09:27:59.371Z,41.30
2018-08-06T09:30:31.469Z,41.50
2018-08-06T09:33:02.213Z,41.40
2018-08-06T09:35:32.125Z,40.60
2018-08-06T09:38:08.589Z,40.20
2018-08-06T09:40:42.986Z,39.80
2018-08-06T09:43:14.621Z,39.60
2018-08-06T09:45:48.544Z,39.50
2018-08-06T09:48:28.494Z,39.50
2018-08-06T09:51:02.069Z,39.90
2018-08-06T09:53:43.581Z,39.90
2018-08-06T09:59:19.747Z,39.30
2018-08-06T10:02:01.789Z,38.70
2018-08-06T10:04:46.824Z,38.50
2018-08-06T10:07:28.205Z,38.90
2018-08-06T10:10:07.471Z,39.00
2018-08-06T10:12:50.657Z,38.60
2018-08-06T10:15:28.219Z,38.10
2018-08-06T10:18:09.026Z,38.00
2018-08-06T10:20:52.548Z,38.00
2018-08-06T10:23:23.598Z,38.30
2018-08-06T10:25:58.747Z,38.20
2018-08-06T10:34:20.375Z,37.70
2018-08-06T10:36:56.156Z,37.30
2018-08-06T10:39:29.429Z,37.40
2018-08-06T10:42:07.143Z,37.40
2018-08-06T10:44:41.261Z,37.30
2018-08-06T10:47:31.440Z,37.20
2018-08-06T10:55:32.113Z,36.90
2018-08-06T10:58:16.857Z,37.00
2018-08-06T11:01:00.135Z,37.10
2018-08-06T11:03:41.059Z,37.10
2018-08-06T11:06:27.324Z,37.20
2018-08-06T11:09:06.288Z,37.40
2018-08-06T11:11:54.914Z,37.40
2018-08-06T11:14:28.675Z,37.30
2018-08-06T11:17:01.304Z,37.10
2018-08-06T11:19:36.021Z,37.30
2018-08-06T11:22:07.810Z,37.60
2018-08-06T11:24:48.592Z,37.70
2018-08-06T11:27:25.928Z,37.80
2018-08-06T11:30:01.512Z,37.60
2018-08-06T11:32:46.406Z,37.50
2018-08-06T11:38:08.636Z,37.90
2018-08-06T11:40:46.827Z,37.90
2018-08-06T11:43:23.090Z,37.80
2018-08-06T11:45:59.088Z,37.70
2018-08-06T11:48:36.660Z,37.60
2018-08-06T11:51:11.279Z,37.50
2018-08-06T11:53:42.399Z,37.30
2018-08-06T11:56:21.916Z,37.20
2018-08-06T11:59:01.108Z,37.50
2018-08-06T12:01:47.594Z,37.70
2018-08-06T12:07:00.391Z,37.50
2018-08-06T12:09:43.033Z,37.40
2018-08-06T12:12:23.411Z,37.50
2018-08-06T12:14:57.273Z,37.60
2018-08-06T12:17:32.297Z,37.80
2018-08-06T12:20:06.313Z,38.00
2018-08-06T12:22:37.669Z,37.80
2018-08-06T12:25:16.382Z,37.60
2018-08-06T12:27:48.443Z,37.60
2018-08-06T12:30:25.819Z,37.30
2018-08-06T12:33:12.136Z,37.10
2018-08-06T12:36:10.111Z,37.20
2018-08-06T12:39:14.848Z,37.50
2018-08-06T12:44:31.017Z,37.80
2018-08-06T12:47:12.852Z,38.00
2018-08-06T12:49:56.547Z,37.80
2018-08-06T12:52:33.126Z,37.50
2018-08-06T12:55:17.160Z,37.50
2018-08-06T12:57:53.565Z,37.40
2018-08-06T13:00:31.249Z,37.40
2018-08-06T13:03:16.940Z,37.40
2018-08-06T13:08:57.182Z,37.60
2018-08-06T13:11:30.484Z,37.50
2018-08-06T13:14:08.477Z,37.50
2018-08-06T13:16:46.097Z,37.50
2018-08-06T13:19:16.636Z,37.60
2018-08-06T13:21:48.266Z,37.70
2018-08-06T13:24:47.391Z,37.90
2018-08-06T13:27:19.567Z,38.10
2018-08-06T13:29:52.312Z,38.10
2018-08-06T13:32:25.136Z,37.70
2018-08-06T13:35:13.122Z,37.30
2018-08-06T13:37:58.242Z,37.50
2018-08-06T13:43:36.989Z,37.80
2018-08-06T13:49:14.339Z,37.70
2018-08-06T13:52:02.959Z,37.70
2018-08-06T13:54:52.822Z,37.80
2018-08-06T13:57:39.892Z,37.70
2018-08-06T14:03:10.096Z,37.10
2018-08-06T14:08:43.880Z,36.40
2018-08-06T14:11:21.330Z,36.20
2018-08-06T14:13:54.701Z,36.10
2018-08-06T14:16:50.296Z,36.20
2018-08-06T14:22:48.818Z,36.20
2018-08-06T14:26:49.964Z,36.10
2018-08-06T14:29:33.379Z,36.20
2018-08-06T14:35:23.496Z,36.80
2018-08-06T14:38:19.621Z,37.10
2018-08-06T14:41:04.590Z,37.20
2018-08-06T14:43:47.916Z,37.50
2018-08-06T14:46:36.043Z,37.50
2018-08-06T14:50:04.544Z,37.30
2018-08-06T14:52:48.087Z,37.10
2018-08-06T14:58:26.199Z,36.70
2018-08-06T15:01:07.256Z,36.40
2018-08-06T15:03:44.724Z,36.30
2018-08-06T15:06:25.134Z,36.50
2018-08-06T15:20:59.786Z,35.80
2018-08-06T15:23:42.532Z,35.60
2018-08-06T15:26:35.326Z,35.40
2018-08-06T15:32:12.738Z,35.20
2018-08-06T15:34:51.720Z,35.10
2018-08-06T15:37:30.640Z,34.90
2018-08-06T15:40:21.959Z,34.80
2018-08-06T15:46:19.646Z,34.50
2018-08-06T15:49:04.304Z,34.40
2018-08-06T15:51:36.335Z,34.00
2018-08-06T15:56:53.946Z,33.40
2018-08-06T15:59:27.443Z,33.40
2018-08-06T16:02:06.990Z,33.20
2018-08-06T16:13:23.825Z,32.50
2018-08-06T16:21:28.647Z,31.40
2018-08-06T16:23:59.626Z,31.10
2018-08-06T16:31:29.681Z,30.60
2018-08-06T16:34:01.178Z,30.40
2018-08-06T16:36:32.533Z,30.40
2018-08-06T16:39:07.758Z,30.30
2018-08-06T16:41:39.487Z,30.30
2018-08-06T16:44:12.798Z,30.20
2018-08-06T16:46:48.800Z,30.00
2018-08-06T16:49:30.907Z,30.00
2018-08-06T16:52:59.055Z,30.00
2018-08-06T16:55:41.639Z,29.80
2018-08-06T16:58:18.933Z,29.90
2018-08-06T17:00:50.662Z,29.80
2018-08-06T17:03:31.962Z,29.80
2018-08-06T17:06:06.140Z,29.80
2018-08-06T17:08:49.085Z,29.90
2018-08-06T17:11:20.902Z,29.90
2018-08-06T17:13:56.140Z,29.80
2018-08-06T17:16:33.263Z,29.80
2018-08-06T17:19:15.051Z,29.80
2018-08-06T17:24:53.404Z,30.00
2018-08-06T17:27:35.439Z,29.90
2018-08-06T17:30:23.338Z,29.70
2018-08-06T17:36:06.461Z,29.60
2018-08-06T17:41:28.023Z,29.30
2018-08-06T17:46:37.894Z,29.50
2018-08-06T17:49:08.493Z,29.40
2018-08-06T17:51:38.455Z,29.40
2018-08-06T17:54:09.042Z,29.40
2018-08-06T17:56:38.371Z,29.40
2018-08-06T17:59:08.395Z,29.40
2018-08-06T18:01:39.237Z,29.30
2018-08-06T18:04:08.634Z,29.20
2018-08-06T18:06:42.846Z,29.30
2018-08-06T18:09:12.734Z,29.20
2018-08-06T18:11:42.063Z,29.30
2018-08-06T18:14:12.810Z,29.30
2018-08-06T18:16:42.376Z,29.30
2018-08-06T18:19:11.611Z,29.20
2018-08-06T18:21:41.998Z,29.10
2018-08-06T18:24:11.484Z,29.10
2018-08-06T18:26:41.191Z,29.00
2018-08-06T18:29:10.407Z,29.00
2018-08-06T18:31:40.569Z,29.10
2018-08-06T18:34:10.612Z,29.00
2018-08-06T18:36:42.486Z,28.90
2018-08-06T18:39:13.430Z,28.80
2018-08-06T18:41:44.655Z,28.80
2018-08-06T18:44:15.430Z,28.70
2018-08-06T18:46:52.120Z,28.60
2018-08-06T18:49:22.759Z,28.60
2018-08-06T18:51:53.046Z,28.60
2018-08-06T18:54:33.281Z,28.50
2018-08-06T18:57:11.323Z,28.40
2018-08-06T19:00:16.268Z,28.40
2018-08-06T19:03:33.153Z,28.30
2018-08-06T19:11:11.054Z,28.10
2018-08-06T19:15:22.416Z,28.10
2018-08-06T19:18:01.740Z,28.00
2018-08-06T19:24:17.330Z,28.00
2018-08-06T19:27:07.856Z,28.00
2018-08-06T19:33:15.609Z,27.90
2018-08-06T19:39:16.916Z,27.90
2018-08-06T19:47:44.880Z,27.80
2018-08-06T19:52:15.954Z,27.70
2018-08-06T19:55:14.504Z,27.70
2018-08-06T20:01:44.054Z,27.70
2018-08-06T20:04:24.877Z,27.70
2018-08-06T20:13:19.899Z,27.50
2018-08-06T20:19:17.344Z,27.30
2018-08-06T20:27:43.913Z,27.00
2018-08-06T20:30:20.159Z,27.00
2018-08-06T20:32:53.460Z,26.90
2018-08-06T20:35:47.689Z,26.90
2018-08-06T20:52:32.804Z,26.70
2018-08-06T20:58:49.479Z,26.60
2018-08-06T21:01:33.913Z,26.50
2018-08-06T21:07:06.295Z,26.60
2018-08-06T21:12:15.428Z,26.70
2018-08-06T21:14:50.064Z,26.70
2018-08-06T21:17:28.917Z,26.70
2018-08-06T21:20:04.123Z,26.80
2018-08-06T21:22:52.773Z,26.80
2018-08-06T21:25:45.139Z,26.70
2018-08-06T21:28:42.309Z,26.80
2018-08-06T21:31:22.213Z,26.70
2018-08-06T21:34:01.211Z,26.60
2018-08-06T21:36:33.226Z,26.60
2018-08-06T21:39:09.612Z,26.60
2018-08-06T21:41:44.126Z,26.50
2018-08-06T21:44:21.297Z,26.50
2018-08-06T21:46:52.829Z,26.50
2018-08-06T21:49:26.355Z,26.40
2018-08-06T21:51:57.608Z,26.40
2018-08-06T21:54:28.276Z,26.40
2018-08-06T21:57:01.008Z,26.30
2018-08-06T21:59:31.000Z,26.40
2018-08-06T22:02:01.192Z,26.30
2018-08-06T22:04:31.647Z,26.30
2018-08-06T22:07:01.529Z,26.40
2018-08-06T22:09:31.518Z,26.50
2018-08-06T22:12:03.653Z,26.70
2018-08-06T22:14:33.994Z,26.60
2018-08-06T22:17:07.229Z,26.50
2018-08-06T22:22:16.379Z,26.50
2018-08-06T22:24:54.496Z,26.50
2018-08-06T22:27:25.796Z,26.50
2018-08-06T22:30:01.668Z,26.50
2018-08-06T22:32:46.767Z,26.40
2018-08-06T22:35:19.893Z,26.40
2018-08-06T22:37:58.606Z,26.30
2018-08-06T22:40:38.863Z,26.30
2018-08-06T22:43:17.844Z,26.30
2018-08-06T22:45:58.712Z,26.30
2018-08-06T22:51:23.575Z,26.30
2018-08-06T22:53:55.859Z,26.30
2018-08-06T22:56:30.483Z,26.40
2018-08-06T22:59:04.394Z,26.50
2018-08-06T23:01:37.262Z,26.60
2018-08-06T23:04:15.355Z,26.60
2018-08-06T23:06:54.909Z,26.60
2018-08-06T23:09:28.717Z,26.60
2018-08-06T23:11:59.394Z,26.40
2018-08-06T23:14:33.141Z,26.30
2018-08-06T23:17:05.347Z,26.30
2018-08-06T23:19:48.753Z,26.30
2018-08-06T23:22:29.426Z,26.20
2018-08-06T23:25:10.086Z,26.20
2018-08-06T23:27:46.163Z,26.10
2018-08-06T23:30:24.549Z,26.00
2018-08-06T23:33:03.192Z,25.90
2018-08-06T23:35:36.390Z,26.00
2018-08-06T23:38:34.427Z,26.00
2018-08-06T23:41:20.420Z,26.00
2018-08-06T23:43:57.821Z,26.00
2018-08-06T23:46:30.023Z,25.90
2018-08-06T23:49:02.343Z,25.80
2018-08-06T23:51:36.660Z,25.80
2018-08-06T23:54:11.023Z,25.90
2018-08-06T23:56:42.226Z,25.70
2018-08-06T23:59:14.395Z,25.60
